Terminal Aerodrome Forecast
Issued by NWS

Current Version | Previous Version | Text Only | Print | Product List | Glossary On
Versions: 1 2 3 4 5 6 7 8 9 10 11 12 13 14 15 16 17 18 19 20 21 22 23 24 25 26
000
FTUS44 KHGX 270315 AAA
TAFLBX
TAF AMD
KLBX 270315Z 2703/2724 17013KT P6SM VCSH FEW020 BKN060 OVC080
     FM270700 15010KT 5SM BR VCSH SCT007 OVC015
     FM271400 17005KT 2SM BR VCSH OVC007
     FM272000 23010KT 4SM BR VCTS BKN015CB=

USA.gov is the U.S. government's official web portal to all federal, state and local government web resources and services.